Portada
METAR-TAF:

METAR-TAF

Aeropuertos :

Bou Saâda, Argelia

latitud: 35-20N, longitud: 004-12E, altitud: 461 m

Observación

El informe se hizo hace 2 horas y 55 minutos, a las 18:00 UTC
Viento 4 kt del noroeste
Temperatura 15°C
Humedad 82%
Presión 1020 hPa
Visibilidad 10 km o más
Escasas nubes a una altura de 3000 ft

METAR: DAAD 211800Z 31004KT 9999 FEW030 15/12 Q1020

Hora: 21:55 (20:55 UTC)

Pronóstico

El informe se hizo hace 3 horas y 55 minutos, a las 17:00 UTC
Pronóstico válido del 21 a las 18 UTC al 22 a las 03 UTC
Viento 8 kt del este
Visibilidad 10 km o más
Escasas nubes a una altura de 3000 ft

TAF: DAAD 211700Z 2118/2203 10008KT 9999 FEW030

Observaciones y pronósticos meteorológicos de más de 4000 aeropuertos (mensajes METAR y TAF).

Los puntos amarillos y rojos representan las estaciones disponibles.

Ponga el ratón en el punto deseado para ver el nombre de la estación.

Haga clic para ver las observaciones y los pronósticos meteorológicos.

Para cambiar el mapa : haga clic en los botones verdes con una cruz de color negro para hacer un zoom, en el botón verde con un guión para alejar o en las flechas verdes para mapas adyacentes.


METAR-TAF: